Time;durP1;ratioP1;P1;durP2;ratioP2;P2;SDS_P1;SDS_P2;PMS_P1;PMS_P2;Temp;Humidity;BMP_temperature;BMP_pressure;BME280_temperature;BME280_humidity;BME280_pressure;Samples;Min_cycle;Max_cycle;Signal;HPM_P1;HPM_P2
2023/12/22 05:00:34;;;;;;;11.23;1.95;;;3.30;99.90;;;;;;5773594;23;20664;-71
2023/12/22 05:03:01;;;;;;;11.75;1.17;;;3.40;99.90;;;;;;4945118;28;20280;-71
2023/12/22 05:05:28;;;;;;;0.47;0.40;;;3.40;99.90;;;;;;4938454;29;20237;-70
2023/12/22 05:07:54;;;;;;;0.75;0.65;;;3.50;99.90;;;;;;4952993;28;20217;-71
2023/12/22 05:10:21;;;;;;;2.30;0.85;;;3.50;99.90;;;;;;4953098;28;20653;-71
2023/12/22 05:12:48;;;;;;;0.65;0.65;;;3.50;99.90;;;;;;4952792;28;20679;-71
2023/12/22 05:15:15;;;;;;;0.77;0.77;;;3.60;99.90;;;;;;4953242;28;20243;-72
2023/12/22 05:17:43;;;;;;;4.38;0.40;;;3.60;99.90;;;;;;4944878;28;20674;-71
2023/12/22 05:20:10;;;;;;;1.95;1.42;;;3.60;99.90;;;;;;4937659;28;20589;-71
2023/12/22 05:22:38;;;;;;;1.30;1.20;;;3.60;99.90;;;;;;4938667;28;20211;-72
2023/12/22 05:25:06;;;;;;;4.00;0.60;;;3.60;99.90;;;;;;4939688;29;20214;-71
2023/12/22 05:27:32;;;;;;;0.88;0.88;;;3.70;99.90;;;;;;4940097;28;20214;-70
2023/12/22 05:30:01;;;;;;;0.50;0.50;;;3.70;99.90;;;;;;4941356;28;20696;-71
2023/12/22 05:32:28;;;;;;;2.75;1.08;;;3.80;99.90;;;;;;4934541;29;20293;-70
2023/12/22 05:34:56;;;;;;;1.73;0.70;;;3.80;99.90;;;;;;4938627;29;20256;-70
2023/12/22 05:37:22;;;;;;;0.30;0.30;;;3.90;99.90;;;;;;4938031;29;20291;-72
2023/12/22 05:39:49;;;;;;;1.10;0.30;;;3.90;99.90;;;;;;4941216;29;20235;-71
2023/12/22 05:42:16;;;;;;;1.33;0.70;;;3.90;99.90;;;;;;4936023;28;20232;-70
2023/12/22 05:44:43;;;;;;;0.40;0.35;;;4.00;99.90;;;;;;4941683;28;20903;-70
2023/12/22 05:47:10;;;;;;;0.82;0.82;;;4.00;99.90;;;;;;4936678;29;20205;-70
2023/12/22 05:49:37;;;;;;;1.40;0.57;;;4.00;99.90;;;;;;4945056;29;20207;-70
2023/12/22 05:52:06;;;;;;;0.32;0.32;;;4.10;99.90;;;;;;4938279;28;20708;-70
2023/12/22 05:54:32;;;;;;;1.35;1.35;;;4.00;99.90;;;;;;4943737;28;20244;-71
2023/12/22 05:56:59;;;;;;;1.15;0.20;;;4.00;99.90;;;;;;4943566;28;20725;-71
2023/12/22 05:59:27;;;;;;;3.25;0.60;;;4.00;99.90;;;;;;4939074;28;20216;-70
2023/12/22 06:01:54;;;;;;;1.55;0.40;;;4.00;99.90;;;;;;4939923;28;20252;-70
2023/12/22 06:04:21;;;;;;;0.73;0.73;;;3.90;99.90;;;;;;4942610;29;20214;-70
2023/12/22 06:06:48;;;;;;;0.60;0.60;;;3.90;99.90;;;;;;4942427;29;20215;-70
2023/12/22 06:09:18;;;;;;;2.05;0.30;;;3.90;99.90;;;;;;4942220;28;20727;-70
2023/12/22 06:11:44;;;;;;;0.80;0.73;;;3.90;99.90;;;;;;4943255;29;20236;-70
2023/12/22 06:14:11;;;;;;;2.40;0.80;;;4.00;99.90;;;;;;4949808;29;20874;-69
2023/12/22 06:16:38;;;;;;;0.85;0.50;;;3.90;99.90;;;;;;4946657;29;20210;-72
2023/12/22 06:19:04;;;;;;;2.95;0.57;;;3.90;99.90;;;;;;4945116;28;20209;-70
2023/12/22 06:21:31;;;;;;;3.45;0.50;;;3.80;99.90;;;;;;4942311;29;20303;-70
2023/12/22 06:23:58;;;;;;;0.50;0.50;;;3.60;99.90;;;;;;4939157;28;20217;-70
2023/12/22 06:26:26;;;;;;;0.40;0.40;;;3.50;99.90;;;;;;4942851;29;20217;-69
2023/12/22 06:28:53;;;;;;;3.40;0.50;;;3.40;99.90;;;;;;4940230;29;20205;-70
2023/12/22 06:31:21;;;;;;;0.90;0.75;;;3.40;99.90;;;;;;4945226;28;20229;-71
2023/12/22 06:33:49;;;;;;;2.67;1.52;;;3.40;99.90;;;;;;4943627;29;20688;-70
2023/12/22 06:36:19;;;;;;;0.43;0.43;;;3.50;99.90;;;;;;4939430;28;20204;-71
2023/12/22 06:38:46;;;;;;;1.20;1.10;;;3.50;99.90;;;;;;4945969;28;20342;-71
2023/12/22 06:41:20;;;;;;;1.30;0.50;;;3.40;99.90;;;;;;4948115;29;20250;-70
2023/12/22 06:43:48;;;;;;;1.77;1.60;;;3.40;99.90;;;;;;4945372;29;20573;-71
2023/12/22 06:46:18;;;;;;;5.25;0.70;;;3.40;99.90;;;;;;4943721;29;20220;-71
2023/12/22 06:48:45;;;;;;;0.57;0.57;;;3.30;99.90;;;;;;4941964;29;20237;-70
2023/12/22 06:51:18;;;;;;;1.65;1.63;;;3.30;99.90;;;;;;4947538;29;20233;-70
2023/12/22 06:53:45;;;;;;;3.80;0.40;;;3.30;99.90;;;;;;4944034;29;20261;-71
2023/12/22 06:56:16;;;;;;;4.28;2.08;;;3.30;99.90;;;;;;4945317;29;20214;-70
2023/12/22 06:58:43;;;;;;;4.10;1.30;;;3.40;99.90;;;;;;4940111;28;20210;-71
2023/12/22 07:01:11;;;;;;;3.90;0.55;;;3.40;99.90;;;;;;4944399;28;20727;-70
2023/12/22 07:03:38;;;;;;;2.15;1.13;;;3.40;99.90;;;;;;4944409;29;20273;-70
2023/12/22 07:06:05;;;;;;;2.13;0.47;;;3.40;99.90;;;;;;4941025;29;20201;-71
2023/12/22 07:08:33;;;;;;;1.70;1.60;;;3.30;99.90;;;;;;4936203;29;20723;-70
2023/12/22 07:10:59;;;;;;;1.70;0.70;;;3.30;99.90;;;;;;4947525;29;20611;-70
2023/12/22 07:13:26;;;;;;;5.55;0.98;;;3.20;99.90;;;;;;4948401;28;20295;-70
2023/12/22 07:15:53;;;;;;;1.30;1.20;;;3.10;99.90;;;;;;4938567;29;20238;-71
2023/12/22 07:18:21;;;;;;;1.02;0.93;;;3.10;99.90;;;;;;4945792;28;20213;-70
2023/12/22 07:20:48;;;;;;;6.18;0.95;;;3.10;99.90;;;;;;4942187;28;20230;-70
2023/12/22 07:23:15;;;;;;;5.38;0.40;;;3.10;99.90;;;;;;4938638;29;20292;-71
2023/12/22 07:25:42;;;;;;;4.75;0.82;;;3.10;99.90;;;;;;4937829;29;20217;-70
2023/12/22 07:28:08;;;;;;;1.02;1.02;;;3.20;99.90;;;;;;4945971;29;20209;-70
2023/12/22 07:30:35;;;;;;;3.63;1.10;;;3.20;99.90;;;;;;4940960;28;20608;-69
2023/12/22 07:33:02;;;;;;;2.38;0.50;;;3.30;99.90;;;;;;4942163;29;20218;-70
2023/12/22 07:35:30;;;;;;;0.85;0.55;;;3.40;99.90;;;;;;4944941;28;20230;-70
2023/12/22 07:37:57;;;;;;;0.90;0.90;;;3.40;99.90;;;;;;4944476;28;20216;-70
2023/12/22 07:40:23;;;;;;;1.15;0.43;;;3.40;99.90;;;;;;4941576;29;20296;-70
2023/12/22 07:42:51;;;;;;;0.60;0.60;;;3.40;99.90;;;;;;4950433;28;20714;-70
2023/12/22 07:45:18;;;;;;;9.27;0.80;;;3.40;99.90;;;;;;4943686;28;20217;-71
2023/12/22 07:47:46;;;;;;;1.95;0.95;;;3.40;99.90;;;;;;4939227;28;20213;-69
2023/12/22 07:50:13;;;;;;;2.92;0.95;;;3.40;99.90;;;;;;4936207;28;20229;-70
2023/12/22 07:52:41;;;;;;;0.88;0.88;;;3.50;99.90;;;;;;4941883;29;20224;-70
2023/12/22 07:55:10;;;;;;;2.35;0.60;;;3.60;99.90;;;;;;4941793;28;20598;-73
2023/12/22 07:57:37;;;;;;;3.50;1.05;;;3.70;99.90;;;;;;4941146;29;20212;-69
2023/12/22 08:00:05;;;;;;;5.72;1.17;;;3.80;99.90;;;;;;4942973;29;20218;-69
2023/12/22 08:02:31;;;;;;;4.18;1.10;;;3.80;99.90;;;;;;4942487;29;20257;-70
2023/12/22 08:04:58;;;;;;;0.95;0.47;;;3.80;99.90;;;;;;4949755;28;20300;-71
2023/12/22 08:07:25;;;;;;;4.93;1.63;;;3.80;99.90;;;;;;4938941;29;20236;-70
2023/12/22 08:09:53;;;;;;;1.10;1.10;;;3.70;99.90;;;;;;4938156;29;20214;-71
2023/12/22 08:12:20;;;;;;;3.45;2.08;;;3.50;99.90;;;;;;4937164;29;20240;-70
2023/12/22 08:14:46;;;;;;;4.60;1.27;;;3.40;99.90;;;;;;4940111;29;20264;-71
2023/12/22 08:17:13;;;;;;;2.08;1.35;;;3.40;99.90;;;;;;4938005;28;20211;-70
2023/12/22 08:19:42;;;;;;;1.75;1.23;;;3.40;99.90;;;;;;4940860;29;20212;-70
2023/12/22 08:22:09;;;;;;;1.40;1.30;;;3.40;99.90;;;;;;4939401;28;20236;-69
2023/12/22 08:24:36;;;;;;;9.38;1.60;;;3.40;99.90;;;;;;4942822;28;20221;-70
2023/12/22 08:27:04;;;;;;;1.95;0.60;;;3.40;99.90;;;;;;4942882;28;20210;-69
2023/12/22 08:29:31;;;;;;;2.40;1.38;;;3.40;99.90;;;;;;4944858;29;20217;-69
2023/12/22 08:32:11;;;;;;;2.67;0.95;;;3.40;99.90;;;;;;4941976;28;20230;-69
2023/12/22 08:34:54;;;;;;;2.05;0.90;;;3.40;99.90;;;;;;4943700;29;20743;-69
2023/12/22 08:37:32;;;;;;;7.30;0.98;;;3.50;99.90;;;;;;4936472;29;20213;-69
2023/12/22 08:40:06;;;;;;;5.88;2.08;;;3.50;99.90;;;;;;4941200;29;20668;-69
2023/12/22 08:42:39;;;;;;;1.83;1.55;;;3.60;99.90;;;;;;4939634;29;20240;-69
2023/12/22 08:45:13;;;;;;;3.13;0.95;;;3.60;99.90;;;;;;4938396;29;20197;-69
2023/12/22 08:47:42;;;;;;;0.82;0.82;;;3.70;99.90;;;;;;4938401;29;20711;-69
2023/12/22 08:50:16;;;;;;;3.63;1.45;;;3.70;99.90;;;;;;4947085;28;20302;-69
2023/12/22 08:52:50;;;;;;;6.55;1.27;;;3.80;99.90;;;;;;4940574;29;20292;-71
2023/12/22 08:55:18;;;;;;;3.55;2.38;;;3.80;99.90;;;;;;4937456;29;20700;-69
2023/12/22 08:57:57;;;;;;;1.95;0.85;;;3.80;99.90;;;;;;4933790;28;20277;-69
2023/12/22 09:00:35;;;;;;;5.82;1.15;;;3.80;99.90;;;;;;4934302;29;20215;-69
2023/12/22 09:03:02;;;;;;;1.35;0.85;;;3.80;99.90;;;;;;4941915;28;20730;-68
2023/12/22 09:05:36;;;;;;;0.85;0.85;;;3.80;99.90;;;;;;4945950;28;20582;-70
2023/12/22 09:08:08;;;;;;;0.57;0.57;;;3.80;99.90;;;;;;4937057;29;20225;-69
2023/12/22 09:10:42;;;;;;;2.10;0.90;;;3.80;99.90;;;;;;4934328;29;20253;-70
2023/12/22 09:13:19;;;;;;;0.30;0.30;;;3.80;99.90;;;;;;4934649;28;20264;-69
2023/12/22 09:15:50;;;;;;;1.13;0.57;;;3.90;99.90;;;;;;4938338;29;20335;-70
2023/12/22 09:18:25;;;;;;;2.33;0.93;;;3.90;99.90;;;;;;4939784;29;20205;-70
2023/12/22 09:21:06;;;;;;;1.27;1.25;;;3.90;99.90;;;;;;4936203;29;20233;-71
2023/12/22 09:23:46;;;;;;;2.05;0.30;;;4.00;99.90;;;;;;4944095;29;20218;-71
2023/12/22 09:26:24;;;;;;;11.13;0.88;;;4.10;99.90;;;;;;4935042;29;20235;-72
2023/12/22 09:29:05;;;;;;;13.82;1.13;;;4.20;99.90;;;;;;4936145;29;20621;-70
2023/12/22 09:31:33;;;;;;;0.65;0.65;;;4.30;99.90;;;;;;4938620;29;20238;-70
2023/12/22 09:34:01;;;;;;;2.35;0.75;;;4.30;99.90;;;;;;4941121;29;20689;-70
2023/12/22 09:36:32;;;;;;;1.27;0.77;;;4.40;99.90;;;;;;4945545;28;20588;-71
2023/12/22 09:39:01;;;;;;;1.60;0.90;;;4.40;99.90;;;;;;4933867;28;20697;-71
2023/12/22 09:41:31;;;;;;;1.42;0.85;;;4.40;99.90;;;;;;4950694;28;20682;-70
2023/12/22 09:44:04;;;;;;;0.75;0.75;;;4.40;99.90;;;;;;4942309;28;20728;-71
2023/12/22 09:46:37;;;;;;;4.22;0.95;;;4.50;99.90;;;;;;4945563;29;20195;-70
2023/12/22 09:49:12;;;;;;;8.68;1.30;;;4.60;99.90;;;;;;4941029;28;20250;-70
2023/12/22 09:51:40;;;;;;;1.65;0.90;;;4.50;99.90;;;;;;4947010;28;20917;-70
2023/12/22 09:54:11;;;;;;;3.55;1.27;;;4.50;99.90;;;;;;4937922;28;20725;-69
2023/12/22 09:56:43;;;;;;;3.40;1.23;;;4.50;99.90;;;;;;4935118;29;20732;-73
2023/12/22 09:59:17;;;;;;;4.00;1.65;;;4.50;99.90;;;;;;4937092;29;20229;-69
2023/12/22 10:01:50;;;;;;;1.38;0.95;;;4.60;99.90;;;;;;4938281;29;20271;-70
2023/12/22 10:04:21;;;;;;;7.53;1.38;;;4.60;99.90;;;;;;4939936;28;20277;-69
2023/12/22 10:06:51;;;;;;;2.38;2.17;;;4.60;99.90;;;;;;4943257;29;20201;-68
2023/12/22 10:09:23;;;;;;;5.95;0.73;;;4.60;99.90;;;;;;4934197;29;20218;-70
2023/12/22 10:11:54;;;;;;;4.47;0.75;;;4.70;99.90;;;;;;4935085;29;20231;-69
2023/12/22 10:14:24;;;;;;;0.95;0.65;;;4.70;99.90;;;;;;4934323;28;20215;-69
2023/12/22 10:16:52;;;;;;;2.25;0.90;;;4.70;99.90;;;;;;4939439;29;20289;-68
2023/12/22 10:19:32;;;;;;;4.20;0.57;;;4.80;99.90;;;;;;4936730;28;20220;-69
2023/12/22 10:22:26;;;;;;;7.40;1.17;;;4.90;99.90;;;;;;4934540;29;20234;-70
2023/12/22 10:24:53;;;;;;;5.20;1.55;;;5.00;99.90;;;;;;4934281;29;20238;-70
2023/12/22 10:27:31;;;;;;;0.43;0.43;;;5.10;99.90;;;;;;4938438;28;20220;-68
2023/12/22 10:30:09;;;;;;;1.27;0.90;;;5.30;99.90;;;;;;4933685;29;20223;-70
2023/12/22 10:32:52;;;;;;;0.90;0.90;;;5.40;99.90;;;;;;4934609;29;20280;-69
2023/12/22 10:35:53;;;;;;;6.60;0.68;;;5.40;99.90;;;;;;4933443;28;20240;-69
2023/12/22 10:38:27;;;;;;;2.65;1.00;;;5.40;99.90;;;;;;4940482;29;20220;-69
2023/12/22 10:41:04;;;;;;;2.83;1.38;;;5.40;99.90;;;;;;4933973;29;20499;-71
2023/12/22 10:43:44;;;;;;;4.55;0.90;;;5.50;99.90;;;;;;4940957;29;20264;-70
2023/12/22 10:46:33;;;;;;;2.67;0.88;;;5.50;99.90;;;;;;4939325;29;20207;-70
2023/12/22 10:49:01;;;;;;;1.75;1.00;;;5.40;99.90;;;;;;4938833;28;20286;-69
2023/12/22 10:51:33;;;;;;;8.48;2.05;;;5.40;99.90;;;;;;4938086;29;20228;-74
2023/12/22 10:54:01;;;;;;;2.85;0.85;;;5.40;99.90;;;;;;4945161;28;20258;-71
2023/12/22 10:56:48;;;;;;;2.17;1.30;;;5.40;99.90;;;;;;4946863;29;20232;-70
2023/12/22 10:59:24;;;;;;;1.27;0.32;;;5.40;99.90;;;;;;4953159;29;20215;-71
2023/12/22 11:01:59;;;;;;;0.75;0.73;;;5.40;99.90;;;;;;4954696;28;20234;-70
2023/12/22 11:04:36;;;;;;;4.15;1.25;;;5.40;99.90;;;;;;4942394;29;20215;-71
2023/12/22 11:07:11;;;;;;;2.70;1.05;;;5.30;99.90;;;;;;4935458;29;20213;-71
2023/12/22 11:09:46;;;;;;;2.85;0.45;;;5.30;99.90;;;;;;4938505;29;20275;-70
2023/12/22 11:12:15;;;;;;;1.33;0.80;;;5.10;99.90;;;;;;4940836;29;20243;-70
2023/12/22 11:14:50;;;;;;;0.80;0.80;;;5.10;99.90;;;;;;4947804;29;20222;-71
2023/12/22 11:17:24;;;;;;;3.88;0.65;;;5.00;99.90;;;;;;4947426;28;20214;-70
2023/12/22 11:19:58;;;;;;;2.35;0.30;;;4.90;99.90;;;;;;4947457;29;20288;-70
2023/12/22 11:22:46;;;;;;;1.30;0.45;;;4.90;99.90;;;;;;4950434;28;20237;-70
2023/12/22 11:25:19;;;;;;;3.05;0.70;;;4.90;99.90;;;;;;4939047;28;20235;-72
2023/12/22 11:27:54;;;;;;;0.52;0.52;;;4.90;99.90;;;;;;4941110;29;20209;-70
2023/12/22 11:30:25;;;;;;;0.95;0.75;;;4.90;99.90;;;;;;4940833;29;20221;-70
2023/12/22 11:32:57;;;;;;;1.05;0.70;;;4.80;99.90;;;;;;4942065;29;20227;-70
2023/12/22 11:35:40;;;;;;;4.72;0.38;;;4.70;99.90;;;;;;4949169;29;20236;-71
2023/12/22 11:38:12;;;;;;;0.50;0.50;;;4.70;99.90;;;;;;4938514;28;20215;-72
2023/12/22 11:40:45;;;;;;;0.77;0.77;;;4.80;99.90;;;;;;4942438;28;20231;-71
2023/12/22 11:43:26;;;;;;;5.47;1.15;;;4.70;99.90;;;;;;4942992;29;20295;-70
2023/12/22 11:46:03;;;;;;;10.43;1.13;;;4.70;99.90;;;;;;4945616;29;20202;-71
2023/12/22 11:48:31;;;;;;;1.02;1.02;;;4.60;99.90;;;;;;4939408;29;20806;-70
2023/12/22 11:51:16;;;;;;;4.15;1.75;;;4.50;99.90;;;;;;4942555;28;20224;-72
2023/12/22 11:53:46;;;;;;;0.93;0.93;;;4.50;99.90;;;;;;4944000;29;20207;-69
2023/12/22 11:56:18;;;;;;;4.00;0.68;;;4.40;99.90;;;;;;4937331;29;20288;-68
2023/12/22 11:58:53;;;;;;;0.43;0.43;;;4.30;99.90;;;;;;4936048;29;20223;-68
2023/12/22 12:01:23;;;;;;;0.77;0.55;;;4.30;99.90;;;;;;4946178;28;20291;-68
2023/12/22 12:04:01;;;;;;;3.60;0.77;;;4.20;99.90;;;;;;4944418;28;20579;-67
2023/12/22 12:06:37;;;;;;;0.20;0.20;;;4.10;99.90;;;;;;4936858;29;20206;-69
2023/12/22 12:09:07;;;;;;;6.22;0.73;;;4.10;99.90;;;;;;4938326;29;20661;-69
2023/12/22 12:12:12;;;;;;;1.52;1.42;;;4.10;99.90;;;;;;4940392;29;20592;-69
2023/12/22 12:14:43;;;;;;;1.95;0.82;;;4.10;99.90;;;;;;4939522;29;20530;-70
2023/12/22 12:17:11;;;;;;;4.03;0.90;;;4.10;99.90;;;;;;4934742;29;20230;-69
2023/12/22 12:19:41;;;;;;;2.90;1.25;;;4.10;99.90;;;;;;4947167;29;20293;-71
2023/12/22 12:22:08;;;;;;;1.92;1.92;;;4.20;99.90;;;;;;4942943;29;20257;-71
2023/12/22 12:24:37;;;;;;;3.28;0.50;;;4.20;99.90;;;;;;4936169;29;20214;-70
2023/12/22 12:27:04;;;;;;;6.00;1.10;;;4.20;99.90;;;;;;4936446;28;20211;-71
2023/12/22 12:29:33;;;;;;;5.28;1.38;;;4.30;99.90;;;;;;4939536;29;20213;-71
2023/12/22 12:32:04;;;;;;;1.65;0.55;;;4.30;99.90;;;;;;4943863;29;20709;-72
2023/12/22 12:34:32;;;;;;;1.17;1.08;;;4.30;99.90;;;;;;4939305;29;20218;-73
2023/12/22 12:37:01;;;;;;;5.85;0.52;;;4.40;99.90;;;;;;4942129;29;20234;-71
2023/12/22 12:39:31;;;;;;;1.25;1.08;;;3.90;99.90;;;;;;4948284;28;20206;-73
2023/12/22 12:42:01;;;;;;;3.35;1.05;;;4.50;99.90;;;;;;4943289;29;20702;-72
2023/12/22 12:44:28;;;;;;;0.40;0.40;;;4.50;99.90;;;;;;4938519;29;20264;-72
2023/12/22 12:46:55;;;;;;;1.55;1.45;;;4.50;99.90;;;;;;4937929;28;20757;-72
2023/12/22 12:49:26;;;;;;;0.85;0.77;;;4.50;99.90;;;;;;4945857;29;20213;-71
2023/12/22 12:51:53;;;;;;;2.80;0.50;;;4.50;99.90;;;;;;4944911;28;20295;-71
2023/12/22 12:54:21;;;;;;;0.73;0.70;;;4.50;99.90;;;;;;4936327;29;20218;-71
2023/12/22 12:56:49;;;;;;;1.02;0.93;;;4.50;99.90;;;;;;4937457;29;20223;-71
2023/12/22 12:59:17;;;;;;;1.25;0.98;;;4.50;99.90;;;;;;4935081;29;20903;-70
2023/12/22 13:01:45;;;;;;;0.60;0.60;;;4.50;99.90;;;;;;4947340;29;20296;-70
2023/12/22 13:04:13;;;;;;;0.73;0.73;;;4.50;99.90;;;;;;4941892;28;20675;-70
2023/12/22 13:06:44;;;;;;;0.50;0.47;;;4.50;99.90;;;;;;4935117;29;20206;-70
2023/12/22 13:09:12;;;;;;;5.07;0.88;;;4.60;99.90;;;;;;4944373;29;20207;-72
2023/12/22 13:11:41;;;;;;;1.95;0.80;;;4.60;99.90;;;;;;4939268;29;20310;-70
2023/12/22 13:14:08;;;;;;;0.63;0.60;;;4.60;99.90;;;;;;4935138;28;20264;-70
2023/12/22 13:16:35;;;;;;;0.82;0.82;;;4.60;99.90;;;;;;4940260;29;20234;-70
2023/12/22 13:19:02;;;;;;;1.33;1.10;;;4.70;99.90;;;;;;4939489;29;20233;-73
2023/12/22 13:21:30;;;;;;;2.95;1.02;;;4.60;99.90;;;;;;4936426;29;20223;-70
2023/12/22 13:24:09;;;;;;;0.75;0.75;;;4.70;99.90;;;;;;4945387;28;20210;-71
2023/12/22 13:26:36;;;;;;;4.22;0.47;;;4.70;99.90;;;;;;4938098;29;20227;-67
2023/12/22 13:29:04;;;;;;;7.35;1.08;;;4.70;99.90;;;;;;4947316;28;20235;-69
2023/12/22 13:31:32;;;;;;;1.55;0.60;;;4.70;99.90;;;;;;4943719;29;20719;-70
2023/12/22 13:33:59;;;;;;;0.45;0.45;;;4.70;99.90;;;;;;4948983;28;20206;-70
2023/12/22 13:36:26;;;;;;;1.13;1.13;;;4.70;99.90;;;;;;4935103;29;20249;-71
2023/12/22 13:38:53;;;;;;;2.40;0.65;;;4.80;99.90;;;;;;4935569;29;20208;-70
2023/12/22 13:41:20;;;;;;;0.30;0.30;;;4.80;99.90;;;;;;4940940;28;20249;-70
2023/12/22 13:43:47;;;;;;;22.27;0.90;;;4.80;99.90;;;;;;4941773;29;20212;-70
2023/12/22 13:46:15;;;;;;;0.93;0.70;;;4.80;99.90;;;;;;4936179;29;20208;-71
2023/12/22 13:48:42;;;;;;;0.45;0.45;;;4.80;99.90;;;;;;4935461;29;20578;-71
2023/12/22 13:51:09;;;;;;;0.20;0.20;;;4.80;99.90;;;;;;4936135;29;20228;-71
2023/12/22 13:53:47;;;;;;;0.40;0.40;;;4.80;99.90;;;;;;4943105;29;20215;-71
2023/12/22 13:56:13;;;;;;;2.30;1.00;;;4.80;99.90;;;;;;4949219;28;20239;-70
2023/12/22 13:58:45;;;;;;;2.05;0.73;;;4.80;99.90;;;;;;4939822;28;20211;-70
2023/12/22 14:01:16;;;;;;;12.77;1.80;;;4.80;99.90;;;;;;4936528;29;20281;-69
2023/12/22 14:03:43;;;;;;;1.77;1.15;;;4.80;99.90;;;;;;4943937;29;20218;-69
2023/12/22 14:06:11;;;;;;;1.05;1.05;;;4.80;99.90;;;;;;4941392;29;20215;-69
2023/12/22 14:08:40;;;;;;;5.35;1.25;;;4.70;99.90;;;;;;4940890;29;20213;-70
2023/12/22 14:11:06;;;;;;;8.45;3.17;;;4.70;99.90;;;;;;4947119;29;20251;-71
2023/12/22 14:13:35;;;;;;;3.67;2.45;;;4.70;99.90;;;;;;4939752;28;20697;-70
2023/12/22 14:16:02;;;;;;;4.40;1.38;;;4.70;99.90;;;;;;4944333;29;20665;-71
2023/12/22 14:18:30;;;;;;;1.80;1.77;;;4.70;99.90;;;;;;4946227;29;20221;-71
2023/12/22 14:20:56;;;;;;;1.40;1.30;;;4.80;99.90;;;;;;4946560;29;20226;-71
2023/12/22 14:23:23;;;;;;;7.38;2.75;;;4.80;99.90;;;;;;4941116;29;20319;-69
2023/12/22 14:25:50;;;;;;;2.15;2.05;;;4.70;99.90;;;;;;4938052;29;20211;-70
2023/12/22 14:28:17;;;;;;;3.72;2.05;;;4.90;99.90;;;;;;4940066;28;20215;-70
2023/12/22 14:30:43;;;;;;;6.03;1.75;;;4.90;99.90;;;;;;4941578;29;20228;-76
2023/12/22 14:33:10;;;;;;;7.07;2.60;;;5.20;99.90;;;;;;4948510;29;20570;-69
2023/12/22 14:35:38;;;;;;;0.45;0.45;;;5.10;99.90;;;;;;4944961;29;20587;-71
2023/12/22 14:38:05;;;;;;;19.38;2.80;;;5.10;99.90;;;;;;4942760;29;20235;-71
2023/12/22 14:40:32;;;;;;;5.47;2.38;;;5.10;99.90;;;;;;4945838;29;20208;-69
2023/12/22 14:43:01;;;;;;;1.58;1.45;;;5.10;99.90;;;;;;4945100;28;20219;-71
2023/12/22 14:45:28;;;;;;;3.90;2.15;;;5.00;99.90;;;;;;4944991;28;20223;-70
2023/12/22 14:47:55;;;;;;;2.30;1.80;;;5.00;99.90;;;;;;4942088;29;20209;-71
2023/12/22 14:50:22;;;;;;;2.58;1.50;;;5.00;99.90;;;;;;4943751;29;20794;-69
2023/12/22 14:52:50;;;;;;;2.47;2.05;;;5.00;99.90;;;;;;4947215;29;20685;-70
2023/12/22 14:55:18;;;;;;;8.15;2.47;;;4.90;99.90;;;;;;4949231;28;20590;-71
2023/12/22 14:57:44;;;;;;;2.60;2.38;;;4.90;99.90;;;;;;4945240;28;20240;-70
2023/12/22 15:00:12;;;;;;;8.07;4.28;;;4.80;99.90;;;;;;4943067;29;20279;-69
2023/12/22 15:02:39;;;;;;;4.20;3.80;;;4.80;99.90;;;;;;4942317;29;20219;-70
2023/12/22 15:05:06;;;;;;;6.95;3.35;;;4.80;99.90;;;;;;4939511;29;20222;-68
2023/12/22 15:07:33;;;;;;;8.63;2.95;;;4.80;99.90;;;;;;4946662;28;20206;-68
2023/12/22 15:10:04;;;;;;;2.03;1.10;;;4.70;99.90;;;;;;4946718;28;20297;-68
2023/12/22 15:12:32;;;;;;;25.75;3.25;;;4.60;99.90;;;;;;4940485;29;20261;-68
2023/12/22 15:14:59;;;;;;;2.88;1.50;;;4.60;99.90;;;;;;4944146;29;20210;-70
2023/12/22 15:17:26;;;;;;;2.65;1.70;;;4.50;99.90;;;;;;4949795;29;20261;-68
2023/12/22 15:19:53;;;;;;;6.28;1.75;;;4.50;99.90;;;;;;4940561;28;20210;-68
2023/12/22 15:22:22;;;;;;;0.60;0.60;;;4.50;99.90;;;;;;4936687;29;20255;-69
2023/12/22 15:24:48;;;;;;;1.25;0.60;;;4.50;99.90;;;;;;4941061;29;20210;-69
2023/12/22 15:27:17;;;;;;;7.85;1.10;;;4.50;99.90;;;;;;4941291;29;20215;-70
2023/12/22 15:29:48;;;;;;;5.07;0.85;;;4.50;99.90;;;;;;4941810;29;20211;-70
2023/12/22 15:32:32;;;;;;;0.88;0.85;;;4.50;99.90;;;;;;4948116;28;20227;-69
2023/12/22 15:35:01;;;;;;;0.38;0.38;;;4.40;99.90;;;;;;4940953;28;20211;-69
2023/12/22 15:37:33;;;;;;;2.13;1.08;;;4.40;99.90;;;;;;4939056;28;20286;-69
2023/12/22 15:40:03;;;;;;;1.95;1.45;;;4.40;99.90;;;;;;4944529;29;20202;-70
2023/12/22 15:42:32;;;;;;;0.50;0.50;;;4.30;99.90;;;;;;4935741;29;20239;-69
2023/12/22 15:45:01;;;;;;;6.82;1.33;;;4.40;99.90;;;;;;4939708;29;20202;-70
2023/12/22 15:47:30;;;;;;;3.03;1.15;;;4.40;99.90;;;;;;4942918;29;20219;-69
2023/12/22 15:49:56;;;;;;;2.92;0.77;;;4.40;99.90;;;;;;4963118;23;20732;-71
2023/12/22 15:52:23;;;;;;;6.47;1.25;;;4.40;99.90;;;;;;4944244;29;20215;-71
2023/12/22 15:54:51;;;;;;;1.75;0.50;;;4.40;99.90;;;;;;4944128;28;20208;-72
2023/12/22 15:57:17;;;;;;;5.38;1.00;;;4.40;99.90;;;;;;4939396;29;20702;-72
2023/12/22 15:59:45;;;;;;;6.07;0.80;;;4.40;99.90;;;;;;4943396;29;20235;-71
2023/12/22 16:02:12;;;;;;;1.35;0.73;;;4.40;99.90;;;;;;4943841;29;20334;-73
2023/12/22 16:04:40;;;;;;;1.65;1.55;;;4.40;99.90;;;;;;4947692;28;20215;-73
2023/12/22 16:07:07;;;;;;;4.28;1.42;;;4.40;99.90;;;;;;4942309;28;20206;-72
2023/12/22 16:09:35;;;;;;;2.83;1.30;;;4.40;99.90;;;;;;4942202;29;20697;-73
2023/12/22 16:12:02;;;;;;;3.70;2.38;;;4.30;99.90;;;;;;4934926;29;20215;-74
2023/12/22 16:14:29;;;;;;;3.63;3.25;;;4.30;99.90;;;;;;4935792;29;20214;-73
2023/12/22 16:16:57;;;;;;;12.85;1.52;;;4.30;99.90;;;;;;4935187;29;20231;-73
2023/12/22 16:19:24;;;;;;;7.20;1.95;;;4.30;99.90;;;;;;4938892;28;20220;-73
2023/12/22 16:21:52;;;;;;;4.63;1.60;;;4.30;99.90;;;;;;4936611;29;20222;-73
2023/12/22 16:24:19;;;;;;;9.73;2.30;;;4.30;99.90;;;;;;4933305;29;20214;-72
2023/12/22 16:26:45;;;;;;;3.88;1.45;;;4.30;99.90;;;;;;4933915;29;20211;-74
2023/12/22 16:29:13;;;;;;;2.47;1.38;;;4.30;99.90;;;;;;4934162;29;20203;-73
2023/12/22 16:31:40;;;;;;;4.20;1.70;;;4.30;99.90;;;;;;4936064;29;20202;-73
2023/12/22 16:34:08;;;;;;;1.88;0.95;;;4.40;99.90;;;;;;4932824;29;20214;-73
2023/12/22 16:36:35;;;;;;;1.23;0.90;;;4.40;99.90;;;;;;4934517;29;20204;-73
2023/12/22 16:39:01;;;;;;;3.30;1.23;;;4.40;99.90;;;;;;4932973;29;20211;-72
2023/12/22 16:41:28;;;;;;;0.88;0.88;;;4.40;99.90;;;;;;4932136;29;20230;-72
2023/12/22 16:43:55;;;;;;;1.60;1.05;;;4.40;99.90;;;;;;4932489;29;20216;-73
2023/12/22 16:46:21;;;;;;;1.75;1.02;;;4.40;99.90;;;;;;4933596;29;20222;-71
2023/12/22 16:48:47;;;;;;;3.53;0.80;;;4.40;99.90;;;;;;4933022;29;20212;-71
2023/12/22 16:51:15;;;;;;;1.38;1.20;;;4.40;99.90;;;;;;4934663;29;20269;-69
2023/12/22 16:53:42;;;;;;;2.40;1.10;;;4.40;99.90;;;;;;4935000;29;20218;-69
2023/12/22 16:56:09;;;;;;;1.55;0.90;;;4.40;99.90;;;;;;4933888;29;20348;-69
2023/12/22 16:58:37;;;;;;;1.65;0.40;;;4.40;99.90;;;;;;4934527;29;20345;-69
2023/12/22 17:01:04;;;;;;;1.85;1.60;;;4.40;99.90;;;;;;4942988;29;20226;-69
2023/12/22 17:03:32;;;;;;;0.50;0.50;;;4.50;99.90;;;;;;4942572;29;20219;-70
2023/12/22 17:06:01;;;;;;;1.58;1.58;;;4.50;99.90;;;;;;4938513;29;20219;-70
2023/12/22 17:08:29;;;;;;;0.30;0.30;;;4.50;99.90;;;;;;4938294;29;20227;-71
2023/12/22 17:10:55;;;;;;;2.50;0.85;;;4.50;99.90;;;;;;4942432;29;20705;-70
2023/12/22 17:13:22;;;;;;;1.50;1.33;;;4.40;99.90;;;;;;4944722;28;20211;-70
2023/12/22 17:15:49;;;;;;;0.80;0.80;;;4.40;99.90;;;;;;4940737;28;20250;-70
2023/12/22 17:18:16;;;;;;;2.60;0.70;;;4.40;99.90;;;;;;4938969;29;20235;-68
2023/12/22 17:20:42;;;;;;;1.77;1.40;;;4.40;99.90;;;;;;4937719;29;20231;-72
2023/12/22 17:23:09;;;;;;;0.90;0.90;;;4.30;99.90;;;;;;4937700;29;20221;-70
2023/12/22 17:25:37;;;;;;;2.83;0.90;;;4.30;99.90;;;;;;4943806;29;20223;-71
2023/12/22 17:28:04;;;;;;;1.65;1.30;;;4.30;99.90;;;;;;4936193;28;20210;-69
2023/12/22 17:30:31;;;;;;;0.80;0.60;;;4.30;99.90;;;;;;4944123;29;20230;-69
2023/12/22 17:32:58;;;;;;;2.75;0.68;;;4.30;99.90;;;;;;4942036;29;20291;-69
2023/12/22 17:35:25;;;;;;;4.72;0.60;;;4.30;99.90;;;;;;4938809;29;20211;-70
2023/12/22 17:37:51;;;;;;;2.08;0.80;;;4.30;99.90;;;;;;4935404;28;20813;-71
2023/12/22 17:40:18;;;;;;;1.73;0.40;;;4.30;99.90;;;;;;4938311;29;20265;-71
2023/12/22 17:42:48;;;;;;;0.57;0.57;;;4.30;99.90;;;;;;4942464;29;20214;-71
2023/12/22 17:45:15;;;;;;;2.70;1.75;;;4.30;99.90;;;;;;4941842;28;20219;-70
2023/12/22 17:47:42;;;;;;;0.47;0.47;;;4.30;99.90;;;;;;4938456;28;20297;-70
2023/12/22 17:50:09;;;;;;;0.55;0.55;;;4.30;99.90;;;;;;4939712;28;20238;-71
2023/12/22 17:52:36;;;;;;;0.77;0.77;;;4.20;99.90;;;;;;4938321;29;20757;-70
2023/12/22 17:55:04;;;;;;;3.00;1.13;;;4.20;99.90;;;;;;4935618;28;20209;-70
2023/12/22 17:57:31;;;;;;;1.30;0.50;;;4.20;99.90;;;;;;4938293;29;20235;-70
2023/12/22 17:59:59;;;;;;;1.30;0.47;;;4.30;99.90;;;;;;4939062;28;20234;-71
2023/12/22 18:02:26;;;;;;;0.50;0.50;;;4.20;99.90;;;;;;4939088;29;20225;-70
2023/12/22 18:04:52;;;;;;;1.65;0.95;;;4.30;99.90;;;;;;4942279;28;20207;-69
2023/12/22 18:07:19;;;;;;;2.67;0.60;;;4.30;99.90;;;;;;4939259;29;20214;-69
2023/12/22 18:09:46;;;;;;;2.00;0.47;;;4.30;99.90;;;;;;4937655;29;20613;-71